sensor_id;sensor_type;location;lat;lon;timestamp;temperature;humidity
29321;DHT22;16323;51.130;6.612;2023-05-28T00:01:43;20.00;60.90
29321;DHT22;16323;51.130;6.612;2023-05-28T00:04:10;20.00;60.90
29321;DHT22;16323;51.130;6.612;2023-05-28T00:06:38;20.00;60.80
29321;DHT22;16323;51.130;6.612;2023-05-28T00:09:05;20.00;60.90
29321;DHT22;16323;51.130;6.612;2023-05-28T00:11:32;20.00;60.90
29321;DHT22;16323;51.130;6.612;2023-05-28T00:13:58;20.00;60.80
29321;DHT22;16323;51.130;6.612;2023-05-28T00:16:25;20.00;60.90
29321;DHT22;16323;51.130;6.612;2023-05-28T00:18:52;20.00;60.90
29321;DHT22;16323;51.130;6.612;2023-05-28T00:21:19;20.00;61.00
29321;DHT22;16323;51.130;6.612;2023-05-28T00:23:47;20.00;61.00
29321;DHT22;16323;51.130;6.612;2023-05-28T00:26:14;20.00;61.10
29321;DHT22;16323;51.130;6.612;2023-05-28T00:28:41;20.00;61.00
29321;DHT22;16323;51.130;6.612;2023-05-28T00:31:08;20.00;61.00
29321;DHT22;16323;51.130;6.612;2023-05-28T00:33:34;19.90;61.00
29321;DHT22;16323;51.130;6.612;2023-05-28T00:36:02;19.90;61.00
29321;DHT22;16323;51.130;6.612;2023-05-28T00:38:28;20.00;61.10
29321;DHT22;16323;51.130;6.612;2023-05-28T00:40:56;20.00;61.10
29321;DHT22;16323;51.130;6.612;2023-05-28T00:43:23;20.00;61.10
29321;DHT22;16323;51.130;6.612;2023-05-28T00:45:50;20.00;61.10
29321;DHT22;16323;51.130;6.612;2023-05-28T00:48:17;20.00;61.00
29321;DHT22;16323;51.130;6.612;2023-05-28T00:50:44;20.00;61.20
29321;DHT22;16323;51.130;6.612;2023-05-28T00:53:11;20.00;61.20
29321;DHT22;16323;51.130;6.612;2023-05-28T00:55:39;20.00;61.10
29321;DHT22;16323;51.130;6.612;2023-05-28T00:58:07;20.00;61.10
29321;DHT22;16323;51.130;6.612;2023-05-28T01:00:36;20.00;61.20
29321;DHT22;16323;51.130;6.612;2023-05-28T01:03:04;20.00;61.10
29321;DHT22;16323;51.130;6.612;2023-05-28T01:05:31;20.00;61.10
29321;DHT22;16323;51.130;6.612;2023-05-28T01:07:59;20.00;61.00
29321;DHT22;16323;51.130;6.612;2023-05-28T01:10:27;20.00;61.00
29321;DHT22;16323;51.130;6.612;2023-05-28T01:12:54;20.00;61.00
29321;DHT22;16323;51.130;6.612;2023-05-28T01:15:24;20.00;61.10
29321;DHT22;16323;51.130;6.612;2023-05-28T01:17:52;20.00;61.00
29321;DHT22;16323;51.130;6.612;2023-05-28T01:20:23;20.00;61.20
29321;DHT22;16323;51.130;6.612;2023-05-28T01:22:54;20.00;61.10
29321;DHT22;16323;51.130;6.612;2023-05-28T01:25:23;20.00;61.20
29321;DHT22;16323;51.130;6.612;2023-05-28T01:27:50;20.00;61.10
29321;DHT22;16323;51.130;6.612;2023-05-28T01:30:17;20.00;61.10
29321;DHT22;16323;51.130;6.612;2023-05-28T01:32:44;20.00;61.30
29321;DHT22;16323;51.130;6.612;2023-05-28T01:35:11;20.00;61.10
29321;DHT22;16323;51.130;6.612;2023-05-28T01:37:41;20.00;61.10
29321;DHT22;16323;51.130;6.612;2023-05-28T01:40:10;20.00;61.10
29321;DHT22;16323;51.130;6.612;2023-05-28T01:42:41;20.00;61.10
29321;DHT22;16323;51.130;6.612;2023-05-28T01:45:10;20.00;61.20
29321;DHT22;16323;51.130;6.612;2023-05-28T01:47:38;20.00;61.10
29321;DHT22;16323;51.130;6.612;2023-05-28T01:50:06;20.00;61.20
29321;DHT22;16323;51.130;6.612;2023-05-28T01:52:33;20.00;61.10
29321;DHT22;16323;51.130;6.612;2023-05-28T01:55:00;20.00;61.20
29321;DHT22;16323;51.130;6.612;2023-05-28T01:57:27;20.00;61.10
29321;DHT22;16323;51.130;6.612;2023-05-28T01:59:55;20.00;61.10
29321;DHT22;16323;51.130;6.612;2023-05-28T02:02:23;20.00;61.00
29321;DHT22;16323;51.130;6.612;2023-05-28T02:04:52;20.00;61.00
29321;DHT22;16323;51.130;6.612;2023-05-28T02:07:18;20.00;61.10
29321;DHT22;16323;51.130;6.612;2023-05-28T02:09:45;20.00;61.10
29321;DHT22;16323;51.130;6.612;2023-05-28T02:12:12;20.00;61.20
29321;DHT22;16323;51.130;6.612;2023-05-28T02:14:39;20.00;61.10
29321;DHT22;16323;51.130;6.612;2023-05-28T02:17:07;20.00;61.20
29321;DHT22;16323;51.130;6.612;2023-05-28T02:19:35;20.00;61.20
29321;DHT22;16323;51.130;6.612;2023-05-28T02:22:02;20.00;61.20
29321;DHT22;16323;51.130;6.612;2023-05-28T02:24:29;20.00;61.20
29321;DHT22;16323;51.130;6.612;2023-05-28T02:26:56;20.00;61.20
29321;DHT22;16323;51.130;6.612;2023-05-28T02:29:22;20.00;61.10
29321;DHT22;16323;51.130;6.612;2023-05-28T02:31:49;20.00;61.20
29321;DHT22;16323;51.130;6.612;2023-05-28T02:34:17;20.00;61.10
29321;DHT22;16323;51.130;6.612;2023-05-28T02:36:44;20.00;61.10
29321;DHT22;16323;51.130;6.612;2023-05-28T02:39:11;20.00;61.10
29321;DHT22;16323;51.130;6.612;2023-05-28T02:41:39;20.00;61.10
29321;DHT22;16323;51.130;6.612;2023-05-28T02:44:05;20.00;61.10
29321;DHT22;16323;51.130;6.612;2023-05-28T02:46:32;20.00;61.10
29321;DHT22;16323;51.130;6.612;2023-05-28T02:48:59;20.00;61.10
29321;DHT22;16323;51.130;6.612;2023-05-28T02:51:27;20.00;61.10
29321;DHT22;16323;51.130;6.612;2023-05-28T02:53:54;20.00;61.10
29321;DHT22;16323;51.130;6.612;2023-05-28T02:56:20;20.00;61.00
29321;DHT22;16323;51.130;6.612;2023-05-28T02:58:47;20.00;61.10
29321;DHT22;16323;51.130;6.612;2023-05-28T03:01:14;20.00;61.10
29321;DHT22;16323;51.130;6.612;2023-05-28T03:03:41;20.00;61.20
29321;DHT22;16323;51.130;6.612;2023-05-28T03:06:08;20.00;61.10
29321;DHT22;16323;51.130;6.612;2023-05-28T03:08:36;20.00;61.10
29321;DHT22;16323;51.130;6.612;2023-05-28T03:11:02;20.00;61.10
29321;DHT22;16323;51.130;6.612;2023-05-28T03:13:29;20.00;61.20
29321;DHT22;16323;51.130;6.612;2023-05-28T03:15:56;20.00;61.20
29321;DHT22;16323;51.130;6.612;2023-05-28T03:18:23;20.00;61.20
29321;DHT22;16323;51.130;6.612;2023-05-28T03:20:50;20.00;61.20
29321;DHT22;16323;51.130;6.612;2023-05-28T03:23:17;20.00;61.20
29321;DHT22;16323;51.130;6.612;2023-05-28T03:25:45;20.00;61.20
29321;DHT22;16323;51.130;6.612;2023-05-28T03:28:12;20.00;61.10
29321;DHT22;16323;51.130;6.612;2023-05-28T03:30:39;20.00;61.10
29321;DHT22;16323;51.130;6.612;2023-05-28T03:33:05;20.00;62.10
29321;DHT22;16323;51.130;6.612;2023-05-28T03:35:32;20.00;61.00
29321;DHT22;16323;51.130;6.612;2023-05-28T03:37:59;20.00;61.00
29321;DHT22;16323;51.130;6.612;2023-05-28T03:40:26;20.00;61.00
29321;DHT22;16323;51.130;6.612;2023-05-28T03:42:54;20.00;61.00
29321;DHT22;16323;51.130;6.612;2023-05-28T03:45:21;20.00;60.90
29321;DHT22;16323;51.130;6.612;2023-05-28T03:47:48;20.00;60.80
29321;DHT22;16323;51.130;6.612;2023-05-28T03:50:14;20.00;60.90
29321;DHT22;16323;51.130;6.612;2023-05-28T03:52:41;20.00;60.90
29321;DHT22;16323;51.130;6.612;2023-05-28T03:55:08;20.00;60.80
29321;DHT22;16323;51.130;6.612;2023-05-28T03:57:36;20.00;60.90
29321;DHT22;16323;51.130;6.612;2023-05-28T04:00:05;20.00;60.80
29321;DHT22;16323;51.130;6.612;2023-05-28T04:02:34;19.90;60.80
29321;DHT22;16323;51.130;6.612;2023-05-28T04:05:01;20.00;60.90
29321;DHT22;16323;51.130;6.612;2023-05-28T04:07:28;20.00;60.80
29321;DHT22;16323;51.130;6.612;2023-05-28T04:09:55;19.90;60.70
29321;DHT22;16323;51.130;6.612;2023-05-28T04:12:21;20.00;60.80
29321;DHT22;16323;51.130;6.612;2023-05-28T04:14:48;20.00;60.80
29321;DHT22;16323;51.130;6.612;2023-05-28T04:17:16;19.90;60.60
29321;DHT22;16323;51.130;6.612;2023-05-28T04:19:44;19.90;60.50
29321;DHT22;16323;51.130;6.612;2023-05-28T04:22:11;19.90;60.30
29321;DHT22;16323;51.130;6.612;2023-05-28T04:24:37;19.90;60.40
29321;DHT22;16323;51.130;6.612;2023-05-28T04:27:05;19.90;60.60
29321;DHT22;16323;51.130;6.612;2023-05-28T04:29:32;19.90;61.00
29321;DHT22;16323;51.130;6.612;2023-05-28T04:31:59;19.90;60.90
29321;DHT22;16323;51.130;6.612;2023-05-28T04:34:27;20.00;61.10
29321;DHT22;16323;51.130;6.612;2023-05-28T04:36:54;19.90;61.00
29321;DHT22;16323;51.130;6.612;2023-05-28T04:39:22;19.90;61.20
29321;DHT22;16323;51.130;6.612;2023-05-28T04:41:48;19.90;61.20
29321;DHT22;16323;51.130;6.612;2023-05-28T04:44:15;19.90;61.30
29321;DHT22;16323;51.130;6.612;2023-05-28T04:46:42;19.90;61.40
29321;DHT22;16323;51.130;6.612;2023-05-28T04:49:11;19.90;61.40
29321;DHT22;16323;51.130;6.612;2023-05-28T04:51:39;19.90;61.50
29321;DHT22;16323;51.130;6.612;2023-05-28T04:54:06;20.00;61.60
29321;DHT22;16323;51.130;6.612;2023-05-28T04:56:33;19.90;61.20
29321;DHT22;16323;51.130;6.612;2023-05-28T04:59:00;19.90;60.90
29321;DHT22;16323;51.130;6.612;2023-05-28T05:01:30;19.90;60.60
29321;DHT22;16323;51.130;6.612;2023-05-28T05:03:58;19.90;60.40
29321;DHT22;16323;51.130;6.612;2023-05-28T05:06:24;19.90;60.40
29321;DHT22;16323;51.130;6.612;2023-05-28T05:08:52;19.90;60.30
29321;DHT22;16323;51.130;6.612;2023-05-28T05:11:20;19.90;60.30
29321;DHT22;16323;51.130;6.612;2023-05-28T05:13:47;19.90;60.50
29321;DHT22;16323;51.130;6.612;2023-05-28T05:16:14;19.90;60.70
29321;DHT22;16323;51.130;6.612;2023-05-28T05:18:42;19.90;60.80
29321;DHT22;16323;51.130;6.612;2023-05-28T05:21:09;19.90;60.90
29321;DHT22;16323;51.130;6.612;2023-05-28T05:23:38;19.90;61.00
29321;DHT22;16323;51.130;6.612;2023-05-28T05:26:07;20.00;61.10
29321;DHT22;16323;51.130;6.612;2023-05-28T05:28:35;20.00;61.20
29321;DHT22;16323;51.130;6.612;2023-05-28T05:31:01;20.00;61.30
29321;DHT22;16323;51.130;6.612;2023-05-28T05:33:28;20.00;61.30
29321;DHT22;16323;51.130;6.612;2023-05-28T05:35:55;20.00;61.40
29321;DHT22;16323;51.130;6.612;2023-05-28T05:38:22;20.00;61.50
29321;DHT22;16323;51.130;6.612;2023-05-28T05:40:49;20.00;61.60
29321;DHT22;16323;51.130;6.612;2023-05-28T05:43:17;20.00;61.60
29321;DHT22;16323;51.130;6.612;2023-05-28T05:45:44;20.00;61.70
29321;DHT22;16323;51.130;6.612;2023-05-28T05:48:11;20.00;61.70
29321;DHT22;16323;51.130;6.612;2023-05-28T05:50:48;20.00;61.80
29321;DHT22;16323;51.130;6.612;2023-05-28T05:53:15;20.00;61.90
29321;DHT22;16323;51.130;6.612;2023-05-28T05:55:42;20.00;61.90
29321;DHT22;16323;51.130;6.612;2023-05-28T05:58:09;20.00;61.90
29321;DHT22;16323;51.130;6.612;2023-05-28T06:00:37;20.00;61.90
29321;DHT22;16323;51.130;6.612;2023-05-28T06:03:04;20.00;63.00
29321;DHT22;16323;51.130;6.612;2023-05-28T06:05:31;20.00;61.90
29321;DHT22;16323;51.130;6.612;2023-05-28T06:07:58;20.00;62.00
29321;DHT22;16323;51.130;6.612;2023-05-28T06:10:25;20.00;61.90
29321;DHT22;16323;51.130;6.612;2023-05-28T06:12:52;20.00;61.90
29321;DHT22;16323;51.130;6.612;2023-05-28T06:15:19;20.10;62.00
29321;DHT22;16323;51.130;6.612;2023-05-28T06:17:48;20.10;61.90
29321;DHT22;16323;51.130;6.612;2023-05-28T06:20:15;20.10;61.90
29321;DHT22;16323;51.130;6.612;2023-05-28T06:22:41;20.00;61.80
29321;DHT22;16323;51.130;6.612;2023-05-28T06:25:08;20.10;61.90
29321;DHT22;16323;51.130;6.612;2023-05-28T06:27:35;20.10;61.90
29321;DHT22;16323;51.130;6.612;2023-05-28T06:30:02;20.10;62.00
29321;DHT22;16323;51.130;6.612;2023-05-28T06:32:29;20.00;61.90
29321;DHT22;16323;51.130;6.612;2023-05-28T06:34:57;20.10;62.00
29321;DHT22;16323;51.130;6.612;2023-05-28T06:37:24;20.10;61.90
29321;DHT22;16323;51.130;6.612;2023-05-28T06:39:51;20.10;62.00
29321;DHT22;16323;51.130;6.612;2023-05-28T06:42:17;20.10;62.00
29321;DHT22;16323;51.130;6.612;2023-05-28T06:44:44;20.00;62.00
29321;DHT22;16323;51.130;6.612;2023-05-28T06:47:11;20.10;62.10
29321;DHT22;16323;51.130;6.612;2023-05-28T06:49:38;20.10;62.10
29321;DHT22;16323;51.130;6.612;2023-05-28T06:52:06;20.10;62.10
29321;DHT22;16323;51.130;6.612;2023-05-28T06:54:33;20.10;62.10
29321;DHT22;16323;51.130;6.612;2023-05-28T06:57:00;20.10;62.10
29321;DHT22;16323;51.130;6.612;2023-05-28T06:59:26;20.10;62.10
29321;DHT22;16323;51.130;6.612;2023-05-28T07:01:54;20.10;62.10
29321;DHT22;16323;51.130;6.612;2023-05-28T07:04:21;20.10;62.10
29321;DHT22;16323;51.130;6.612;2023-05-28T07:06:47;20.10;62.10
29321;DHT22;16323;51.130;6.612;2023-05-28T07:09:16;20.10;62.00
29321;DHT22;16323;51.130;6.612;2023-05-28T07:11:42;20.10;62.10
29321;DHT22;16323;51.130;6.612;2023-05-28T07:14:09;20.10;62.10
29321;DHT22;16323;51.130;6.612;2023-05-28T07:16:36;20.10;62.10
29321;DHT22;16323;51.130;6.612;2023-05-28T07:19:03;20.10;62.20
29321;DHT22;16323;51.130;6.612;2023-05-28T07:21:29;20.10;62.20
29321;DHT22;16323;51.130;6.612;2023-05-28T07:23:57;20.10;62.20
29321;DHT22;16323;51.130;6.612;2023-05-28T07:26:25;20.10;62.20
29321;DHT22;16323;51.130;6.612;2023-05-28T07:28:52;20.10;62.30
29321;DHT22;16323;51.130;6.612;2023-05-28T07:31:18;20.10;62.30
29321;DHT22;16323;51.130;6.612;2023-05-28T07:33:45;20.10;62.40
29321;DHT22;16323;51.130;6.612;2023-05-28T07:36:12;20.10;62.40
29321;DHT22;16323;51.130;6.612;2023-05-28T07:38:39;20.10;62.60
29321;DHT22;16323;51.130;6.612;2023-05-28T07:41:06;20.10;62.60
29321;DHT22;16323;51.130;6.612;2023-05-28T07:43:34;20.10;62.60
29321;DHT22;16323;51.130;6.612;2023-05-28T07:46:01;20.10;63.00
29321;DHT22;16323;51.130;6.612;2023-05-28T07:48:27;20.20;63.10
29321;DHT22;16323;51.130;6.612;2023-05-28T07:50:54;20.20;63.00
29321;DHT22;16323;51.130;6.612;2023-05-28T07:53:21;20.20;63.10
29321;DHT22;16323;51.130;6.612;2023-05-28T07:55:48;20.20;63.10
29321;DHT22;16323;51.130;6.612;2023-05-28T07:58:14;20.20;63.10
29321;DHT22;16323;51.130;6.612;2023-05-28T08:00:42;20.20;63.10
29321;DHT22;16323;51.130;6.612;2023-05-28T08:03:09;20.30;63.10
29321;DHT22;16323;51.130;6.612;2023-05-28T08:05:37;20.30;63.10
29321;DHT22;16323;51.130;6.612;2023-05-28T08:08:03;20.30;63.10
29321;DHT22;16323;51.130;6.612;2023-05-28T08:10:30;20.30;63.10
29321;DHT22;16323;51.130;6.612;2023-05-28T08:12:57;20.30;63.10
29321;DHT22;16323;51.130;6.612;2023-05-28T08:15:24;20.30;63.10
29321;DHT22;16323;51.130;6.612;2023-05-28T08:17:52;20.30;63.10
29321;DHT22;16323;51.130;6.612;2023-05-28T08:20:19;20.30;63.30
29321;DHT22;16323;51.130;6.612;2023-05-28T08:22:47;20.30;63.40
29321;DHT22;16323;51.130;6.612;2023-05-28T08:25:14;20.30;63.50
29321;DHT22;16323;51.130;6.612;2023-05-28T08:27:41;20.30;63.60
29321;DHT22;16323;51.130;6.612;2023-05-28T08:30:09;20.20;63.60
29321;DHT22;16323;51.130;6.612;2023-05-28T08:32:36;20.20;63.60
29321;DHT22;16323;51.130;6.612;2023-05-28T08:35:04;20.20;63.80
29321;DHT22;16323;51.130;6.612;2023-05-28T08:37:32;20.20;63.80
29321;DHT22;16323;51.130;6.612;2023-05-28T08:39:58;20.20;63.90
29321;DHT22;16323;51.130;6.612;2023-05-28T08:42:25;20.20;63.70
29321;DHT22;16323;51.130;6.612;2023-05-28T08:44:54;20.20;64.00
29321;DHT22;16323;51.130;6.612;2023-05-28T08:47:21;20.20;63.50
29321;DHT22;16323;51.130;6.612;2023-05-28T08:49:51;20.20;63.70
29321;DHT22;16323;51.130;6.612;2023-05-28T08:52:20;20.20;63.80
29321;DHT22;16323;51.130;6.612;2023-05-28T08:54:49;20.20;63.90
29321;DHT22;16323;51.130;6.612;2023-05-28T08:57:16;20.20;64.30
29321;DHT22;16323;51.130;6.612;2023-05-28T08:59:44;20.20;63.90
29321;DHT22;16323;51.130;6.612;2023-05-28T09:02:12;20.20;64.00
29321;DHT22;16323;51.130;6.612;2023-05-28T09:04:39;20.20;63.90
29321;DHT22;16323;51.130;6.612;2023-05-28T09:07:06;20.20;63.90
29321;DHT22;16323;51.130;6.612;2023-05-28T09:09:35;20.20;63.90
29321;DHT22;16323;51.130;6.612;2023-05-28T09:12:04;20.20;64.00
29321;DHT22;16323;51.130;6.612;2023-05-28T09:14:37;20.20;63.90
29321;DHT22;16323;51.130;6.612;2023-05-28T09:17:05;20.20;63.90
29321;DHT22;16323;51.130;6.612;2023-05-28T09:19:34;20.20;63.80
29321;DHT22;16323;51.130;6.612;2023-05-28T09:22:01;20.20;63.80
29321;DHT22;16323;51.130;6.612;2023-05-28T09:24:29;20.20;63.80
29321;DHT22;16323;51.130;6.612;2023-05-28T09:26:58;20.20;63.80
29321;DHT22;16323;51.130;6.612;2023-05-28T09:29:26;20.20;63.80
29321;DHT22;16323;51.130;6.612;2023-05-28T09:31:57;20.20;63.70
29321;DHT22;16323;51.130;6.612;2023-05-28T09:34:28;20.20;63.60
29321;DHT22;16323;51.130;6.612;2023-05-28T09:36:59;20.20;63.50
29321;DHT22;16323;51.130;6.612;2023-05-28T09:39:26;20.20;63.40
29321;DHT22;16323;51.130;6.612;2023-05-28T09:42:01;20.20;63.20
29321;DHT22;16323;51.130;6.612;2023-05-28T09:44:32;20.20;63.30
29321;DHT22;16323;51.130;6.612;2023-05-28T09:46:58;20.20;63.20
29321;DHT22;16323;51.130;6.612;2023-05-28T09:49:28;20.20;63.20
29321;DHT22;16323;51.130;6.612;2023-05-28T09:51:57;20.20;63.30
29321;DHT22;16323;51.130;6.612;2023-05-28T09:54:25;20.20;63.30
29321;DHT22;16323;51.130;6.612;2023-05-28T09:56:54;20.20;63.30
29321;DHT22;16323;51.130;6.612;2023-05-28T09:59:26;20.20;63.20
29321;DHT22;16323;51.130;6.612;2023-05-28T10:01:59;20.20;64.40
29321;DHT22;16323;51.130;6.612;2023-05-28T10:04:32;20.20;63.90
29321;DHT22;16323;51.130;6.612;2023-05-28T10:07:00;20.20;63.80
29321;DHT22;16323;51.130;6.612;2023-05-28T10:09:28;20.20;63.60
29321;DHT22;16323;51.130;6.612;2023-05-28T10:12:01;20.20;63.50
29321;DHT22;16323;51.130;6.612;2023-05-28T10:14:32;20.20;63.30
29321;DHT22;16323;51.130;6.612;2023-05-28T10:16:59;20.20;63.30
29321;DHT22;16323;51.130;6.612;2023-05-28T10:19:27;20.20;63.10
29321;DHT22;16323;51.130;6.612;2023-05-28T10:21:54;20.20;64.00
29321;DHT22;16323;51.130;6.612;2023-05-28T10:24:22;20.20;63.10
29321;DHT22;16323;51.130;6.612;2023-05-28T10:26:49;20.20;62.80
29321;DHT22;16323;51.130;6.612;2023-05-28T10:29:17;20.20;62.70
29321;DHT22;16323;51.130;6.612;2023-05-28T10:31:45;20.20;62.60
29321;DHT22;16323;51.130;6.612;2023-05-28T10:34:29;20.20;62.60
29321;DHT22;16323;51.130;6.612;2023-05-28T10:36:56;20.20;63.10
29321;DHT22;16323;51.130;6.612;2023-05-28T10:39:23;20.30;62.90
29321;DHT22;16323;51.130;6.612;2023-05-28T10:41:50;20.30;62.80
29321;DHT22;16323;51.130;6.612;2023-05-28T10:44:16;20.30;62.80
29321;DHT22;16323;51.130;6.612;2023-05-28T10:46:45;20.30;62.50
29321;DHT22;16323;51.130;6.612;2023-05-28T10:49:21;20.30;62.40
29321;DHT22;16323;51.130;6.612;2023-05-28T10:51:55;20.30;62.40
29321;DHT22;16323;51.130;6.612;2023-05-28T10:54:27;20.30;62.30
29321;DHT22;16323;51.130;6.612;2023-05-28T10:57:12;20.30;62.20
29321;DHT22;16323;51.130;6.612;2023-05-28T10:59:45;20.30;63.00
29321;DHT22;16323;51.130;6.612;2023-05-28T11:02:16;20.30;62.80
29321;DHT22;16323;51.130;6.612;2023-05-28T11:04:44;20.30;62.70
29321;DHT22;16323;51.130;6.612;2023-05-28T11:07:12;20.30;62.40
29321;DHT22;16323;51.130;6.612;2023-05-28T11:09:39;20.30;62.40
29321;DHT22;16323;51.130;6.612;2023-05-28T11:12:07;20.30;63.30
29321;DHT22;16323;51.130;6.612;2023-05-28T11:14:34;20.40;62.40
29321;DHT22;16323;51.130;6.612;2023-05-28T11:17:06;20.40;62.10
29321;DHT22;16323;51.130;6.612;2023-05-28T11:19:40;20.40;61.70
29321;DHT22;16323;51.130;6.612;2023-05-28T11:22:08;20.50;61.60
29321;DHT22;16323;51.130;6.612;2023-05-28T11:24:56;20.50;61.50
29321;DHT22;16323;51.130;6.612;2023-05-28T11:27:24;20.50;61.40
29321;DHT22;16323;51.130;6.612;2023-05-28T11:29:53;20.50;61.00
29321;DHT22;16323;51.130;6.612;2023-05-28T11:32:20;20.50;60.60
29321;DHT22;16323;51.130;6.612;2023-05-28T11:34:50;20.50;60.40
29321;DHT22;16323;51.130;6.612;2023-05-28T11:37:22;20.50;60.80
29321;DHT22;16323;51.130;6.612;2023-05-28T11:39:50;20.50;61.30
29321;DHT22;16323;51.130;6.612;2023-05-28T11:42:18;20.50;61.20
29321;DHT22;16323;51.130;6.612;2023-05-28T11:44:46;20.50;61.70
29321;DHT22;16323;51.130;6.612;2023-05-28T11:47:13;20.60;60.70
29321;DHT22;16323;51.130;6.612;2023-05-28T11:49:40;20.50;60.30
29321;DHT22;16323;51.130;6.612;2023-05-28T11:52:12;20.50;60.30
29321;DHT22;16323;51.130;6.612;2023-05-28T11:54:40;20.50;60.40
29321;DHT22;16323;51.130;6.612;2023-05-28T11:57:07;20.50;60.80
29321;DHT22;16323;51.130;6.612;2023-05-28T11:59:35;20.50;60.80
29321;DHT22;16323;51.130;6.612;2023-05-28T12:02:12;20.50;60.90
29321;DHT22;16323;51.130;6.612;2023-05-28T12:04:39;20.50;60.70
29321;DHT22;16323;51.130;6.612;2023-05-28T12:07:07;20.60;60.80
29321;DHT22;16323;51.130;6.612;2023-05-28T12:09:35;20.50;60.70
29321;DHT22;16323;51.130;6.612;2023-05-28T12:12:10;20.50;60.80
29321;DHT22;16323;51.130;6.612;2023-05-28T12:14:37;20.50;60.80
29321;DHT22;16323;51.130;6.612;2023-05-28T12:17:05;20.50;61.00
29321;DHT22;16323;51.130;6.612;2023-05-28T12:19:32;20.50;61.00
29321;DHT22;16323;51.130;6.612;2023-05-28T12:21:59;20.50;61.20
29321;DHT22;16323;51.130;6.612;2023-05-28T12:24:27;20.50;61.00
29321;DHT22;16323;51.130;6.612;2023-05-28T12:26:55;20.50;60.80
29321;DHT22;16323;51.130;6.612;2023-05-28T12:29:22;20.50;60.50
29321;DHT22;16323;51.130;6.612;2023-05-28T12:31:57;20.50;60.30
29321;DHT22;16323;51.130;6.612;2023-05-28T12:34:24;20.50;60.40
29321;DHT22;16323;51.130;6.612;2023-05-28T12:36:51;20.50;60.40
29321;DHT22;16323;51.130;6.612;2023-05-28T12:39:18;20.50;60.50
29321;DHT22;16323;51.130;6.612;2023-05-28T12:41:45;20.40;60.50
29321;DHT22;16323;51.130;6.612;2023-05-28T12:44:13;20.40;60.60
29321;DHT22;16323;51.130;6.612;2023-05-28T12:46:41;20.40;60.50
29321;DHT22;16323;51.130;6.612;2023-05-28T12:49:08;20.40;60.80
29321;DHT22;16323;51.130;6.612;2023-05-28T12:51:34;20.40;60.80
29321;DHT22;16323;51.130;6.612;2023-05-28T12:54:02;20.40;60.80
29321;DHT22;16323;51.130;6.612;2023-05-28T12:56:29;20.40;61.40
29321;DHT22;16323;51.130;6.612;2023-05-28T12:58:56;20.50;63.10
29321;DHT22;16323;51.130;6.612;2023-05-28T13:01:24;20.50;62.80
29321;DHT22;16323;51.130;6.612;2023-05-28T13:03:51;20.50;62.30
29321;DHT22;16323;51.130;6.612;2023-05-28T13:06:18;20.50;61.90
29321;DHT22;16323;51.130;6.612;2023-05-28T13:08:45;20.50;61.60
29321;DHT22;16323;51.130;6.612;2023-05-28T13:11:12;20.50;61.70
29321;DHT22;16323;51.130;6.612;2023-05-28T13:13:39;20.50;61.60
29321;DHT22;16323;51.130;6.612;2023-05-28T13:16:05;20.40;61.40
29321;DHT22;16323;51.130;6.612;2023-05-28T13:18:33;20.50;61.50
29321;DHT22;16323;51.130;6.612;2023-05-28T13:21:00;20.50;61.30
29321;DHT22;16323;51.130;6.612;2023-05-28T13:23:27;20.50;61.40
29321;DHT22;16323;51.130;6.612;2023-05-28T13:25:54;20.50;61.40
29321;DHT22;16323;51.130;6.612;2023-05-28T13:28:21;20.50;61.20
29321;DHT22;16323;51.130;6.612;2023-05-28T13:30:48;20.50;61.30
29321;DHT22;16323;51.130;6.612;2023-05-28T13:33:16;20.60;61.50
29321;DHT22;16323;51.130;6.612;2023-05-28T13:35:44;20.50;61.30
29321;DHT22;16323;51.130;6.612;2023-05-28T13:38:10;20.60;61.20
29321;DHT22;16323;51.130;6.612;2023-05-28T13:40:37;20.60;61.30
29321;DHT22;16323;51.130;6.612;2023-05-28T13:43:04;20.60;61.40
29321;DHT22;16323;51.130;6.612;2023-05-28T13:45:32;20.60;61.70
29321;DHT22;16323;51.130;6.612;2023-05-28T13:47:59;20.60;62.40
29321;DHT22;16323;51.130;6.612;2023-05-28T13:50:27;20.70;62.20
29321;DHT22;16323;51.130;6.612;2023-05-28T13:52:56;20.70;62.30
29321;DHT22;16323;51.130;6.612;2023-05-28T13:55:23;20.70;62.60
29321;DHT22;16323;51.130;6.612;2023-05-28T13:57:50;20.70;62.70
29321;DHT22;16323;51.130;6.612;2023-05-28T14:00:17;20.70;62.90
29321;DHT22;16323;51.130;6.612;2023-05-28T14:02:46;20.70;62.80
29321;DHT22;16323;51.130;6.612;2023-05-28T14:05:14;20.70;62.90
29321;DHT22;16323;51.130;6.612;2023-05-28T14:07:40;20.70;63.00
29321;DHT22;16323;51.130;6.612;2023-05-28T14:10:10;20.70;63.20
29321;DHT22;16323;51.130;6.612;2023-05-28T14:12:36;20.70;63.40
29321;DHT22;16323;51.130;6.612;2023-05-28T14:15:05;20.70;62.80
29321;DHT22;16323;51.130;6.612;2023-05-28T14:17:32;20.70;62.90
29321;DHT22;16323;51.130;6.612;2023-05-28T14:19:58;20.80;63.30
29321;DHT22;16323;51.130;6.612;2023-05-28T14:22:25;20.80;63.20
29321;DHT22;16323;51.130;6.612;2023-05-28T14:24:52;20.80;63.20
29321;DHT22;16323;51.130;6.612;2023-05-28T14:27:20;20.80;63.30
29321;DHT22;16323;51.130;6.612;2023-05-28T14:29:47;20.80;63.50
29321;DHT22;16323;51.130;6.612;2023-05-28T14:32:14;20.80;63.60
29321;DHT22;16323;51.130;6.612;2023-05-28T14:34:41;20.80;63.40
29321;DHT22;16323;51.130;6.612;2023-05-28T14:37:07;20.80;63.50
29321;DHT22;16323;51.130;6.612;2023-05-28T14:39:34;20.90;63.70
29321;DHT22;16323;51.130;6.612;2023-05-28T14:42:01;20.80;63.50
29321;DHT22;16323;51.130;6.612;2023-05-28T14:44:30;20.80;63.00
29321;DHT22;16323;51.130;6.612;2023-05-28T14:46:57;20.90;63.00
29321;DHT22;16323;51.130;6.612;2023-05-28T14:49:24;20.90;63.00
29321;DHT22;16323;51.130;6.612;2023-05-28T14:51:54;20.90;63.00
29321;DHT22;16323;51.130;6.612;2023-05-28T14:54:21;20.90;63.40
29321;DHT22;16323;51.130;6.612;2023-05-28T14:56:48;20.90;63.70
29321;DHT22;16323;51.130;6.612;2023-05-28T14:59:15;20.90;63.90
29321;DHT22;16323;51.130;6.612;2023-05-28T15:01:43;20.90;64.30
29321;DHT22;16323;51.130;6.612;2023-05-28T15:04:10;20.80;64.00
29321;DHT22;16323;51.130;6.612;2023-05-28T15:06:37;20.90;64.00
29321;DHT22;16323;51.130;6.612;2023-05-28T15:09:03;20.90;64.60
29321;DHT22;16323;51.130;6.612;2023-05-28T15:11:30;21.00;65.00
29321;DHT22;16323;51.130;6.612;2023-05-28T15:13:57;21.10;64.60
29321;DHT22;16323;51.130;6.612;2023-05-28T15:16:24;21.10;63.00
29321;DHT22;16323;51.130;6.612;2023-05-28T15:18:52;21.20;64.90
29321;DHT22;16323;51.130;6.612;2023-05-28T15:21:19;21.20;64.70
29321;DHT22;16323;51.130;6.612;2023-05-28T15:23:46;21.20;63.70
29321;DHT22;16323;51.130;6.612;2023-05-28T15:26:13;21.10;64.20
29321;DHT22;16323;51.130;6.612;2023-05-28T15:28:41;21.00;64.50
29321;DHT22;16323;51.130;6.612;2023-05-28T15:31:08;21.00;64.80
29321;DHT22;16323;51.130;6.612;2023-05-28T15:33:35;21.00;64.70